createdAt,value
2022-08-08T00:00:53.522Z,821.36
2022-08-08T00:00:55.169Z,821.33
2022-08-08T00:01:20.382Z,821.39
2022-08-08T00:02:32.829Z,821.39
2022-08-08T00:03:31.430Z,821.39
2022-08-08T00:04:20.536Z,821.38
2022-08-08T00:05:20.449Z,821.37
2022-08-08T00:06:28.662Z,821.34
2022-08-08T00:07:20.480Z,821.39
2022-08-08T00:08:20.498Z,821.33
2022-08-08T00:09:20.517Z,821.36
2022-08-08T00:10:22.334Z,821.34
2022-08-08T00:11:20.549Z,821.34
2022-08-08T00:12:23.847Z,821.37
2022-08-08T00:14:17.271Z,821.35
2022-08-08T00:14:48.536Z,821.35
2022-08-08T00:15:24.381Z,821.28
2022-08-08T00:16:20.628Z,821.30
2022-08-08T00:17:23.494Z,821.25
2022-08-08T00:18:20.665Z,821.22
2022-08-08T00:19:20.679Z,821.23
2022-08-08T00:20:20.694Z,821.23
2022-08-08T00:21:23.200Z,821.18
2022-08-08T00:22:20.726Z,821.22
2022-08-08T00:23:20.746Z,821.21
2022-08-08T00:24:24.093Z,821.20
2022-08-08T00:25:20.777Z,821.21
2022-08-08T00:26:26.076Z,821.18
2022-08-08T00:27:20.810Z,821.18
2022-08-08T00:28:34.313Z,821.19
2022-08-08T00:29:45.859Z,821.16
2022-08-08T00:30:20.857Z,821.17
2022-08-08T00:32:20.480Z,821.19
2022-08-08T00:32:35.132Z,821.13
2022-08-08T00:33:20.910Z,821.18
2022-08-08T00:34:20.927Z,821.15
2022-08-08T00:35:21.315Z,821.16
2022-08-08T00:36:25.769Z,821.16
2022-08-08T00:37:47.095Z,821.17
2022-08-08T00:38:32.050Z,821.14
2022-08-08T00:41:08.112Z,821.13
2022-08-08T00:41:12.952Z,821.12
2022-08-08T00:41:21.966Z,821.12
2022-08-08T00:42:33.046Z,821.09
2022-08-08T00:43:21.110Z,821.08
2022-08-08T00:44:21.087Z,821.08
2022-08-08T00:45:27.297Z,821.07
2022-08-08T00:46:21.123Z,821.11
2022-08-08T00:47:23.482Z,821.09
2022-08-08T00:48:29.429Z,821.07
2022-08-08T00:49:22.558Z,821.07
2022-08-08T00:50:21.184Z,821.04
2022-08-08T00:51:21.195Z,821.01
2022-08-08T00:52:21.217Z,821.05
2022-08-08T00:53:21.234Z,821.01
2022-08-08T00:54:21.247Z,821.03
2022-08-08T00:55:22.168Z,821.03
2022-08-08T00:56:21.279Z,821.00
2022-08-08T00:57:29.458Z,821.00
2022-08-08T00:58:21.311Z,820.93
2022-08-08T00:59:43.719Z,820.94
2022-08-08T01:00:22.378Z,820.96
2022-08-08T01:01:37.647Z,820.93
2022-08-08T01:03:59.822Z,820.94
2022-08-08T01:03:59.864Z,820.93
2022-08-08T01:04:21.538Z,820.91
2022-08-08T01:05:28.882Z,820.93
2022-08-08T01:06:27.170Z,820.91
2022-08-08T01:07:21.459Z,820.90
2022-08-08T01:08:21.475Z,820.89
2022-08-08T01:09:35.986Z,820.87
2022-08-08T01:10:21.504Z,820.90
2022-08-08T01:11:21.521Z,820.86
2022-08-08T01:12:25.617Z,820.85
2022-08-08T01:13:37.851Z,820.89
2022-08-08T01:14:53.084Z,820.90
2022-08-08T01:15:37.021Z,820.89
2022-08-08T01:16:21.599Z,820.84
2022-08-08T01:17:34.845Z,820.84
2022-08-08T01:18:25.548Z,820.82
2022-08-08T01:19:42.071Z,820.80
2022-08-08T01:20:22.140Z,820.83
2022-08-08T01:21:35.011Z,820.78
2022-08-08T01:22:23.674Z,820.78
2022-08-08T01:24:03.206Z,820.77
2022-08-08T01:24:21.744Z,820.75
2022-08-08T01:25:26.314Z,820.75
2022-08-08T01:26:24.039Z,820.72
2022-08-08T01:27:32.663Z,820.77
2022-08-08T01:28:28.036Z,820.76
2022-08-08T01:29:23.869Z,820.73
2022-08-08T01:30:21.821Z,820.78
2022-08-08T01:32:02.672Z,820.76
2022-08-08T01:32:21.878Z,820.79
2022-08-08T01:33:24.000Z,820.73
2022-08-08T01:34:21.890Z,820.71
2022-08-08T01:35:29.753Z,820.70
2022-08-08T01:36:22.925Z,820.67
2022-08-08T01:37:51.047Z,820.68
2022-08-08T01:38:21.950Z,820.69
2022-08-08T01:39:23.457Z,820.73
2022-08-08T01:40:21.985Z,820.70
2022-08-08T01:41:22.005Z,820.74
2022-08-08T01:42:36.561Z,820.74
2022-08-08T01:43:22.035Z,820.69
2022-08-08T01:44:22.050Z,820.71
2022-08-08T01:45:22.683Z,820.70
2022-08-08T01:46:22.082Z,820.70
2022-08-08T01:48:14.543Z,820.76
2022-08-08T01:48:30.712Z,820.75
2022-08-08T01:49:23.420Z,820.75
2022-08-08T01:50:25.475Z,820.73
2022-08-08T01:52:02.832Z,820.69
2022-08-08T01:53:04.036Z,820.72
2022-08-08T01:55:15.110Z,820.72
2022-08-08T01:55:25.863Z,820.71
2022-08-08T01:56:27.161Z,820.74
2022-08-08T01:56:30.052Z,820.72
2022-08-08T01:57:22.256Z,820.75
2022-08-08T01:58:38.585Z,820.72
2022-08-08T01:59:22.293Z,820.73
2022-08-08T02:00:22.399Z,820.74
2022-08-08T02:01:22.424Z,820.73
2022-08-08T02:02:39.804Z,820.74
2022-08-08T02:03:55.809Z,820.73
2022-08-08T02:04:22.366Z,820.74
2022-08-08T02:05:23.410Z,820.72
2022-08-08T02:06:32.804Z,820.76
2022-08-08T02:07:22.427Z,820.75
2022-08-08T02:08:22.432Z,820.79
2022-08-08T02:10:01.661Z,820.76
2022-08-08T02:10:30.255Z,820.72
2022-08-08T02:11:23.752Z,820.75
2022-08-08T02:12:22.532Z,820.76
2022-08-08T02:13:52.844Z,820.73
2022-08-08T02:14:22.526Z,820.75
2022-08-08T02:15:22.640Z,820.76
2022-08-08T02:16:22.560Z,820.77
2022-08-08T02:17:22.570Z,820.76
2022-08-08T02:18:22.593Z,820.73
2022-08-08T02:19:41.527Z,820.78
2022-08-08T02:21:02.582Z,820.74
2022-08-08T02:21:22.637Z,820.76
2022-08-08T02:22:27.949Z,820.75
2022-08-08T02:23:22.835Z,820.80
2022-08-08T02:24:23.691Z,820.80
2022-08-08T02:25:22.815Z,820.80
2022-08-08T02:26:22.714Z,820.80
2022-08-08T02:27:22.732Z,820.83
2022-08-08T02:28:26.083Z,820.82
2022-08-08T02:29:22.768Z,820.80
2022-08-08T02:30:25.554Z,820.83
2022-08-08T02:31:58.909Z,820.79
2022-08-08T02:32:26.168Z,820.85
2022-08-08T02:33:22.827Z,820.87
2022-08-08T02:34:33.061Z,820.84
2022-08-08T02:35:22.864Z,820.84
2022-08-08T02:36:23.810Z,820.84
2022-08-08T02:37:53.050Z,820.84
2022-08-08T02:38:25.641Z,820.83
2022-08-08T02:39:40.780Z,820.88
2022-08-08T02:40:23.008Z,820.88
2022-08-08T02:41:59.048Z,820.86
2022-08-08T02:42:38.509Z,820.80
2022-08-08T02:44:36.798Z,820.83
2022-08-08T02:44:45.111Z,820.85
2022-08-08T02:45:23.016Z,820.82
2022-08-08T02:46:23.029Z,820.82
2022-08-08T02:47:23.048Z,820.80
2022-08-08T02:48:25.757Z,820.80
2022-08-08T02:49:27.522Z,820.80
2022-08-08T02:50:23.097Z,820.79
2022-08-08T02:51:38.302Z,820.78
2022-08-08T02:52:34.674Z,820.76
2022-08-08T02:53:24.088Z,820.73
2022-08-08T02:54:23.158Z,820.73
2022-08-08T02:55:23.176Z,820.71
2022-08-08T02:56:23.189Z,820.72
2022-08-08T02:57:23.962Z,820.70
2022-08-08T02:58:23.231Z,820.73
2022-08-08T02:59:37.328Z,820.71
2022-08-08T03:00:31.007Z,820.74
2022-08-08T03:01:23.328Z,820.73
2022-08-08T03:02:29.982Z,820.73
2022-08-08T03:05:01.135Z,820.73
2022-08-08T03:05:05.090Z,820.71
2022-08-08T03:05:23.332Z,820.71
2022-08-08T03:06:34.345Z,820.73
2022-08-08T03:07:23.362Z,820.71
2022-08-08T03:08:23.380Z,820.67
2022-08-08T03:09:23.393Z,820.70
2022-08-08T03:10:32.521Z,820.68
2022-08-08T03:11:47.628Z,820.69
2022-08-08T03:12:36.657Z,820.68
2022-08-08T03:13:33.969Z,820.66
2022-08-08T03:16:01.024Z,820.66
2022-08-08T03:16:01.027Z,820.63
2022-08-08T03:16:35.782Z,820.65
2022-08-08T03:17:34.017Z,820.63
2022-08-08T03:18:31.240Z,820.64
2022-08-08T03:19:23.549Z,820.65
2022-08-08T03:20:23.563Z,820.65
2022-08-08T03:21:26.913Z,820.66
2022-08-08T03:22:38.447Z,820.64
2022-08-08T03:23:23.837Z,820.65
2022-08-08T03:24:23.634Z,820.62
2022-08-08T03:25:33.851Z,820.59
2022-08-08T03:26:23.657Z,820.61
2022-08-08T03:27:27.211Z,820.60
2022-08-08T03:28:23.683Z,820.60
2022-08-08T03:29:27.096Z,820.58
2022-08-08T03:30:23.723Z,820.61
2022-08-08T03:31:24.935Z,820.58
2022-08-08T03:32:29.041Z,820.60
2022-08-08T03:33:55.254Z,820.62
2022-08-08T03:34:23.773Z,820.59
2022-08-08T03:35:23.791Z,820.60
2022-08-08T03:36:27.897Z,820.59
2022-08-08T03:37:59.422Z,820.63
2022-08-08T03:38:57.250Z,820.65
2022-08-08T03:39:23.902Z,820.62
2022-08-08T03:40:30.375Z,820.61
2022-08-08T03:42:13.125Z,820.68
2022-08-08T03:42:27.938Z,820.63
2022-08-08T03:43:23.913Z,820.69
2022-08-08T03:44:25.486Z,820.66
2022-08-08T03:46:07.105Z,820.65
2022-08-08T03:46:25.488Z,820.67
2022-08-08T03:47:25.096Z,820.63
2022-08-08T03:49:09.987Z,820.65
2022-08-08T03:49:58.963Z,820.65
2022-08-08T03:50:24.637Z,820.66
2022-08-08T03:51:40.311Z,820.63
2022-08-08T03:52:24.126Z,820.65
2022-08-08T03:53:42.468Z,820.65
2022-08-08T03:54:24.107Z,820.62
2022-08-08T03:55:57.343Z,820.62
2022-08-08T03:56:31.657Z,820.64
2022-08-08T03:58:34.082Z,820.67
2022-08-08T03:58:34.736Z,820.65
2022-08-08T03:59:24.158Z,820.65
2022-08-08T04:00:26.150Z,820.67
2022-08-08T04:01:26.054Z,820.63
2022-08-08T04:02:36.908Z,820.64
2022-08-08T04:03:25.855Z,820.66
2022-08-08T04:04:30.791Z,820.65
2022-08-08T04:05:28.755Z,820.65
2022-08-08T04:06:24.265Z,820.67
2022-08-08T04:07:24.279Z,820.70
2022-08-08T04:08:33.629Z,820.69
2022-08-08T04:09:24.309Z,820.76
2022-08-08T04:10:24.338Z,820.78
2022-08-08T04:11:25.458Z,820.75
2022-08-08T04:12:24.367Z,820.78
2022-08-08T04:13:24.365Z,820.75
2022-08-08T04:14:34.625Z,820.79
2022-08-08T04:15:24.397Z,820.79
2022-08-08T04:16:40.092Z,820.79
2022-08-08T04:17:57.897Z,820.79
2022-08-08T04:18:24.437Z,820.80
2022-08-08T04:19:25.457Z,820.82
2022-08-08T04:20:28.842Z,820.84
2022-08-08T04:21:24.485Z,820.87
2022-08-08T04:22:24.565Z,820.87
2022-08-08T04:23:24.574Z,820.90
2022-08-08T04:24:30.454Z,820.90
2022-08-08T04:25:29.784Z,820.91
2022-08-08T04:26:25.987Z,820.89
2022-08-08T04:28:02.534Z,820.89
2022-08-08T04:28:36.654Z,820.89
2022-08-08T04:29:24.607Z,820.90
2022-08-08T04:30:24.677Z,820.94
2022-08-08T04:31:57.153Z,820.90
2022-08-08T04:32:40.852Z,820.90
2022-08-08T04:33:24.668Z,820.93
2022-08-08T04:34:25.130Z,820.96
2022-08-08T04:35:24.704Z,820.87
2022-08-08T04:36:24.713Z,820.91
2022-08-08T04:37:31.945Z,820.89
2022-08-08T04:38:24.749Z,820.91
2022-08-08T04:40:03.405Z,820.94
2022-08-08T04:40:24.783Z,820.90
2022-08-08T04:41:24.847Z,820.89
2022-08-08T04:42:24.810Z,820.91
2022-08-08T04:43:32.449Z,820.90
2022-08-08T04:44:26.834Z,820.95
2022-08-08T04:45:25.602Z,820.92
2022-08-08T04:46:25.099Z,820.95
2022-08-08T04:47:24.881Z,820.93
2022-08-08T04:48:25.000Z,820.95
2022-08-08T04:49:28.929Z,820.97
2022-08-08T04:50:32.641Z,821.00
2022-08-08T04:51:28.104Z,821.02
2022-08-08T04:52:25.377Z,821.02
2022-08-08T04:54:27.174Z,821.04
2022-08-08T04:54:40.196Z,821.05
2022-08-08T04:55:24.998Z,821.03
2022-08-08T04:56:25.018Z,821.04
2022-08-08T04:57:25.033Z,821.07
2022-08-08T04:58:25.049Z,821.05
2022-08-08T04:59:29.902Z,821.03
2022-08-08T05:00:25.077Z,821.10
2022-08-08T05:01:25.146Z,821.07
2022-08-08T05:02:31.193Z,821.09
2022-08-08T05:04:11.160Z,821.13
2022-08-08T05:04:25.138Z,821.11
2022-08-08T05:05:44.290Z,821.10
2022-08-08T05:06:25.627Z,821.09
2022-08-08T05:07:25.281Z,821.09
2022-08-08T05:08:26.981Z,821.12
2022-08-08T05:09:25.212Z,821.10
2022-08-08T05:10:28.332Z,821.09
2022-08-08T05:11:26.306Z,821.08
2022-08-08T05:12:29.556Z,821.09
2022-08-08T05:13:25.909Z,821.10
2022-08-08T05:14:25.287Z,821.08
2022-08-08T05:15:25.302Z,821.08
2022-08-08T05:16:54.431Z,821.10
2022-08-08T05:17:25.392Z,821.13
2022-08-08T05:18:25.375Z,821.12
2022-08-08T05:20:12.959Z,821.08
2022-08-08T05:20:25.381Z,821.06
2022-08-08T05:21:25.398Z,821.07
2022-08-08T05:22:25.408Z,821.09
2022-08-08T05:23:25.425Z,821.05
2022-08-08T05:24:26.208Z,821.05
2022-08-08T05:25:25.452Z,821.07
2022-08-08T05:26:27.536Z,821.05
2022-08-08T05:27:25.486Z,821.08
2022-08-08T05:28:48.064Z,821.07
2022-08-08T05:29:28.375Z,821.07
2022-08-08T05:30:28.318Z,821.06
2022-08-08T05:32:03.784Z,821.07
2022-08-08T05:32:27.340Z,821.02
2022-08-08T05:33:25.576Z,821.07
2022-08-08T05:34:26.445Z,821.08
2022-08-08T05:35:25.608Z,821.06
2022-08-08T05:36:28.082Z,821.03
2022-08-08T05:37:28.335Z,821.02
2022-08-08T05:38:31.619Z,821.06
2022-08-08T05:39:28.575Z,821.03
2022-08-08T05:40:28.629Z,821.04
2022-08-08T05:41:25.697Z,821.03
2022-08-08T05:42:26.116Z,821.03
2022-08-08T05:43:39.420Z,821.02
2022-08-08T05:44:30.867Z,821.06
2022-08-08T05:45:41.582Z,821.08
2022-08-08T05:46:25.770Z,821.04
2022-08-08T05:47:25.785Z,821.08
2022-08-08T05:48:28.243Z,821.03
2022-08-08T05:49:26.553Z,821.06
2022-08-08T05:50:25.831Z,821.04
2022-08-08T05:51:26.039Z,821.06
2022-08-08T05:52:33.877Z,821.04
2022-08-08T05:54:24.545Z,821.01
2022-08-08T05:54:49.821Z,821.02
2022-08-08T05:55:25.908Z,821.01
2022-08-08T05:56:25.924Z,821.02
2022-08-08T05:57:57.595Z,820.99
2022-08-08T05:58:31.605Z,821.03
2022-08-08T06:00:00.906Z,821.06
2022-08-08T06:00:26.122Z,821.05
2022-08-08T06:01:52.482Z,821.05
2022-08-08T06:02:26.020Z,821.08
2022-08-08T06:03:29.567Z,821.04
2022-08-08T06:04:26.182Z,821.04
2022-08-08T06:05:35.397Z,821.05
2022-08-08T06:06:32.585Z,821.04
2022-08-08T06:07:26.105Z,821.05
2022-08-08T06:08:33.564Z,821.06
2022-08-08T06:09:58.122Z,821.09
2022-08-08T06:10:26.237Z,821.06
2022-08-08T06:11:28.050Z,821.02
2022-08-08T06:12:29.689Z,821.06
2022-08-08T06:13:26.179Z,821.10
2022-08-08T06:14:26.203Z,821.10
2022-08-08T06:15:50.147Z,821.10
2022-08-08T06:16:30.159Z,821.08
2022-08-08T06:17:26.246Z,821.09
2022-08-08T06:18:26.467Z,821.11
2022-08-08T06:19:27.532Z,821.09
2022-08-08T06:20:26.396Z,821.08
2022-08-08T06:21:32.541Z,821.12
2022-08-08T06:22:35.153Z,821.13
2022-08-08T06:23:49.119Z,821.10
2022-08-08T06:24:31.018Z,821.08
2022-08-08T06:26:35.199Z,821.09
2022-08-08T06:26:44.155Z,821.10
2022-08-08T06:27:26.401Z,821.13
2022-08-08T06:28:29.399Z,821.15
2022-08-08T06:29:56.619Z,821.14
2022-08-08T06:30:28.587Z,821.11
2022-08-08T06:31:52.521Z,821.14
2022-08-08T06:32:26.478Z,821.16
2022-08-08T06:33:36.916Z,821.10
2022-08-08T06:34:28.377Z,821.13
2022-08-08T06:36:03.965Z,821.12
2022-08-08T06:36:26.538Z,821.13
2022-08-08T06:37:26.548Z,821.15
2022-08-08T06:38:27.766Z,821.12
2022-08-08T06:39:26.614Z,821.15
2022-08-08T06:40:27.166Z,821.18
2022-08-08T06:41:26.616Z,821.14
2022-08-08T06:42:26.631Z,821.17
2022-08-08T06:43:28.594Z,821.17
2022-08-08T06:44:26.766Z,821.17
2022-08-08T06:45:26.678Z,821.19
2022-08-08T06:46:26.697Z,821.19
2022-08-08T06:47:33.851Z,821.22
2022-08-08T06:48:27.359Z,821.26
2022-08-08T06:49:56.777Z,821.28
2022-08-08T06:50:31.443Z,821.27
2022-08-08T06:51:31.411Z,821.27
2022-08-08T06:52:27.767Z,821.30
2022-08-08T06:53:39.187Z,821.25
2022-08-08T06:54:26.822Z,821.25
2022-08-08T06:55:26.832Z,821.24
2022-08-08T06:56:26.843Z,821.28
2022-08-08T06:57:29.208Z,821.30
2022-08-08T06:58:30.518Z,821.30
2022-08-08T06:59:27.134Z,821.29
2022-08-08T07:00:30.235Z,821.29
2022-08-08T07:02:17.683Z,821.25
2022-08-08T07:02:29.540Z,821.28
2022-08-08T07:03:52.191Z,821.28
2022-08-08T07:04:40.235Z,821.31
2022-08-08T07:05:29.793Z,821.29
2022-08-08T07:06:27.128Z,821.24
2022-08-08T07:07:27.311Z,821.28
2022-08-08T07:08:27.036Z,821.28
2022-08-08T07:09:45.761Z,821.29
2022-08-08T07:10:27.066Z,821.31
2022-08-08T07:11:27.082Z,821.32
2022-08-08T07:12:30.612Z,821.29
2022-08-08T07:13:27.113Z,821.32
2022-08-08T07:14:28.127Z,821.32
2022-08-08T07:15:40.937Z,821.33
2022-08-08T07:16:28.946Z,821.33
2022-08-08T07:17:40.096Z,821.32
2022-08-08T07:18:35.488Z,821.32
2022-08-08T07:19:27.201Z,821.31
2022-08-08T07:20:27.974Z,821.35
2022-08-08T07:21:27.241Z,821.32
2022-08-08T07:22:27.257Z,821.33
2022-08-08T07:23:27.268Z,821.34
2022-08-08T07:24:27.280Z,821.34
2022-08-08T07:25:29.262Z,821.33
2022-08-08T07:26:29.112Z,821.32
2022-08-08T07:27:27.768Z,821.33
2022-08-08T07:28:31.435Z,821.29
2022-08-08T07:29:59.912Z,821.33
2022-08-08T07:30:27.386Z,821.36
2022-08-08T07:31:27.394Z,821.33
2022-08-08T07:32:27.431Z,821.34
2022-08-08T07:33:27.424Z,821.35
2022-08-08T07:34:31.627Z,821.33
2022-08-08T07:35:27.472Z,821.34
2022-08-08T07:36:27.470Z,821.35
2022-08-08T07:37:27.662Z,821.34
2022-08-08T07:38:27.503Z,821.35
2022-08-08T07:39:29.385Z,821.37
2022-08-08T07:40:29.811Z,821.37
2022-08-08T07:41:27.554Z,821.36
2022-08-08T07:42:33.478Z,821.37
2022-08-08T07:43:37.274Z,821.34
2022-08-08T07:44:38.113Z,821.41
2022-08-08T07:45:34.620Z,821.35
2022-08-08T07:46:30.800Z,821.35
2022-08-08T07:47:29.229Z,821.39
2022-08-08T07:48:29.715Z,821.38
2022-08-08T07:49:27.680Z,821.42
2022-08-08T07:50:27.697Z,821.38
2022-08-08T07:51:45.155Z,821.40
2022-08-08T07:52:27.732Z,821.43
2022-08-08T07:54:01.182Z,821.35
2022-08-08T07:54:27.758Z,821.35
2022-08-08T07:55:28.999Z,821.34
2022-08-08T07:56:36.419Z,821.33
2022-08-08T07:57:27.958Z,821.34
2022-08-08T07:58:27.825Z,821.38
2022-08-08T07:59:27.858Z,821.34
2022-08-08T08:00:27.855Z,821.35
2022-08-08T08:02:34.377Z,821.33
2022-08-08T08:02:36.578Z,821.36
2022-08-08T08:03:28.505Z,821.35
2022-08-08T08:04:27.922Z,821.37
2022-08-08T08:05:33.448Z,821.41
2022-08-08T08:06:27.955Z,821.39
2022-08-08T08:07:37.642Z,821.40
2022-08-08T08:08:27.992Z,821.39
2022-08-08T08:09:28.003Z,821.39
2022-08-08T08:10:30.286Z,821.42
2022-08-08T08:11:38.402Z,821.39
2022-08-08T08:12:35.427Z,821.37
2022-08-08T08:14:05.851Z,821.38
2022-08-08T08:14:28.086Z,821.38
2022-08-08T08:15:31.870Z,821.38
2022-08-08T08:16:28.113Z,821.40
2022-08-08T08:17:28.815Z,821.39
2022-08-08T08:18:32.278Z,821.44
2022-08-08T08:19:32.087Z,821.38
2022-08-08T08:20:30.099Z,821.39
2022-08-08T08:21:44.882Z,821.41
2022-08-08T08:22:33.491Z,821.41
2022-08-08T08:23:28.235Z,821.42
2022-08-08T08:24:32.106Z,821.39
2022-08-08T08:25:43.641Z,821.43
2022-08-08T08:26:28.574Z,821.42
2022-08-08T08:27:30.205Z,821.43
2022-08-08T08:28:28.316Z,821.45
2022-08-08T08:29:28.332Z,821.45
2022-08-08T08:30:28.348Z,821.46
2022-08-08T08:31:28.364Z,821.45
2022-08-08T08:32:35.643Z,821.41
2022-08-08T08:33:28.405Z,821.44
2022-08-08T08:34:32.327Z,821.49
2022-08-08T08:35:29.707Z,821.44
2022-08-08T08:36:28.452Z,821.45
2022-08-08T08:37:30.229Z,821.41
2022-08-08T08:38:28.484Z,821.45
2022-08-08T08:39:59.294Z,821.40
2022-08-08T08:40:28.630Z,821.48
2022-08-08T08:41:31.009Z,821.45
2022-08-08T08:42:31.318Z,821.43
2022-08-08T08:43:29.059Z,821.46
2022-08-08T08:44:28.946Z,821.49
2022-08-08T08:45:28.605Z,821.47
2022-08-08T08:46:28.626Z,821.50
2022-08-08T08:47:43.700Z,821.49
2022-08-08T08:48:28.654Z,821.51
2022-08-08T08:49:33.483Z,821.51
2022-08-08T08:50:32.471Z,821.52
2022-08-08T08:51:28.708Z,821.55
2022-08-08T08:52:28.985Z,821.52
2022-08-08T08:53:55.865Z,821.55
2022-08-08T08:54:32.614Z,821.54
2022-08-08T08:55:28.775Z,821.55
2022-08-08T08:56:29.425Z,821.54
2022-08-08T08:57:28.991Z,821.56
2022-08-08T08:58:28.826Z,821.56
2022-08-08T08:59:58.576Z,821.57
2022-08-08T09:00:49.926Z,821.59
2022-08-08T09:01:28.917Z,821.58
2022-08-08T09:02:28.898Z,821.60
2022-08-08T09:03:46.004Z,821.60
2022-08-08T09:04:30.070Z,821.59
2022-08-08T09:05:53.864Z,821.59
2022-08-08T09:06:33.558Z,821.59
2022-08-08T09:07:39.488Z,821.55
2022-08-08T09:08:29.525Z,821.56
2022-08-08T09:09:39.289Z,821.58
2022-08-08T09:10:29.178Z,821.62
2022-08-08T09:11:32.898Z,821.57
2022-08-08T09:12:29.070Z,821.62
2022-08-08T09:13:29.086Z,821.57
2022-08-08T09:14:29.107Z,821.62
2022-08-08T09:15:41.527Z,821.62
2022-08-08T09:16:29.153Z,821.65
2022-08-08T09:17:40.962Z,821.63
2022-08-08T09:18:29.173Z,821.65
2022-08-08T09:21:58.981Z,821.62
2022-08-08T09:22:01.317Z,821.67
2022-08-08T09:22:02.630Z,821.64
2022-08-08T09:22:29.247Z,821.62
2022-08-08T09:23:33.505Z,821.62
2022-08-08T09:24:29.278Z,821.61
2022-08-08T09:25:35.867Z,821.62
2022-08-08T09:26:32.428Z,821.63
2022-08-08T09:27:57.650Z,821.63
2022-08-08T09:28:35.524Z,821.63
2022-08-08T09:29:29.369Z,821.58
2022-08-08T09:30:29.388Z,821.60
2022-08-08T09:31:42.700Z,821.58
2022-08-08T09:32:31.838Z,821.64
2022-08-08T09:34:15.274Z,821.63
2022-08-08T09:34:32.483Z,821.65
2022-08-08T09:35:32.082Z,821.62
2022-08-08T09:36:29.498Z,821.67
2022-08-08T09:37:58.695Z,821.66
2022-08-08T09:38:29.528Z,821.61
2022-08-08T09:39:29.607Z,821.64
2022-08-08T09:40:43.965Z,821.65
2022-08-08T09:41:33.489Z,821.71
2022-08-08T09:42:29.602Z,821.72
2022-08-08T09:43:41.151Z,821.64
2022-08-08T09:44:34.422Z,821.69
2022-08-08T09:46:01.896Z,821.69
2022-08-08T09:46:31.174Z,821.65
2022-08-08T09:48:02.997Z,821.72
2022-08-08T09:48:32.493Z,821.67
2022-08-08T09:49:49.547Z,821.69
2022-08-08T09:50:29.821Z,821.64
2022-08-08T09:51:29.779Z,821.68
2022-08-08T09:52:56.187Z,821.71
2022-08-08T09:53:53.258Z,821.71
2022-08-08T09:54:37.880Z,821.70
2022-08-08T09:55:51.321Z,821.66
2022-08-08T09:56:29.960Z,821.69
2022-08-08T09:57:34.908Z,821.68
2022-08-08T09:58:40.836Z,821.70
2022-08-08T10:00:01.702Z,821.64
2022-08-08T10:00:53.142Z,821.68
2022-08-08T10:02:02.130Z,821.66
2022-08-08T10:02:30.138Z,821.67
2022-08-08T10:03:31.839Z,821.67
2022-08-08T10:04:41.948Z,821.71
2022-08-08T10:05:31.371Z,821.71
2022-08-08T10:06:30.055Z,821.70
2022-08-08T10:07:35.749Z,821.71
2022-08-08T10:08:30.530Z,821.69
2022-08-08T10:09:30.103Z,821.69
2022-08-08T10:10:31.914Z,821.72
2022-08-08T10:12:25.992Z,821.72
2022-08-08T10:12:38.215Z,821.70
2022-08-08T10:13:35.349Z,821.65
2022-08-08T10:14:35.436Z,821.69
2022-08-08T10:15:30.228Z,821.65
2022-08-08T10:16:30.244Z,821.72
2022-08-08T10:17:56.744Z,821.72
2022-08-08T10:18:30.275Z,821.69
2022-08-08T10:19:30.297Z,821.69
2022-08-08T10:20:41.419Z,821.71
2022-08-08T10:21:33.120Z,821.72
2022-08-08T10:22:32.354Z,821.78
2022-08-08T10:23:41.407Z,821.76
2022-08-08T10:24:35.077Z,821.75
2022-08-08T10:25:35.969Z,821.73
2022-08-08T10:26:52.350Z,821.72
2022-08-08T10:27:34.211Z,821.65
2022-08-08T10:28:30.465Z,821.69
2022-08-08T10:29:43.959Z,821.71
2022-08-08T10:30:59.761Z,821.70
2022-08-08T10:31:46.723Z,821.71
2022-08-08T10:32:30.732Z,821.77
2022-08-08T10:33:37.921Z,821.73
2022-08-08T10:34:30.586Z,821.70
2022-08-08T10:36:09.192Z,821.73
2022-08-08T10:36:30.901Z,821.80
2022-08-08T10:37:30.682Z,821.74
2022-08-08T10:38:30.664Z,821.75
2022-08-08T10:39:31.622Z,821.77
2022-08-08T10:40:32.344Z,821.76
2022-08-08T10:41:35.722Z,821.79
2022-08-08T10:42:31.015Z,821.73
2022-08-08T10:43:32.134Z,821.75
2022-08-08T10:44:30.782Z,821.76
2022-08-08T10:45:39.076Z,821.73
2022-08-08T10:46:30.895Z,821.76
2022-08-08T10:47:43.576Z,821.77
2022-08-08T10:48:30.919Z,821.75
2022-08-08T10:50:02.220Z,821.79
2022-08-08T10:50:30.904Z,821.74
2022-08-08T10:51:40.945Z,821.71
2022-08-08T10:52:31.503Z,821.68
2022-08-08T10:53:56.739Z,821.66
2022-08-08T10:54:30.985Z,821.63
2022-08-08T10:55:40.004Z,821.67
2022-08-08T10:56:32.175Z,821.67
2022-08-08T10:57:44.972Z,821.69
2022-08-08T10:58:31.069Z,821.65
2022-08-08T10:59:31.414Z,821.72
2022-08-08T11:00:31.414Z,821.73
2022-08-08T11:01:33.526Z,821.68
2022-08-08T11:02:31.635Z,821.69
2022-08-08T11:03:37.108Z,821.70
2022-08-08T11:04:38.983Z,821.75
2022-08-08T11:05:38.330Z,821.72
2022-08-08T11:06:31.262Z,821.70
2022-08-08T11:07:40.601Z,821.71
2022-08-08T11:08:40.908Z,821.74
2022-08-08T11:09:31.934Z,821.71
2022-08-08T11:10:31.319Z,821.72
2022-08-08T11:11:32.045Z,821.69
2022-08-08T11:12:31.582Z,821.72
2022-08-08T11:13:31.907Z,821.73
2022-08-08T11:14:31.406Z,821.76
2022-08-08T11:15:31.456Z,821.75
2022-08-08T11:16:32.857Z,821.74
2022-08-08T11:17:58.476Z,821.72
2022-08-08T11:18:31.491Z,821.70
2022-08-08T11:19:31.694Z,821.74
2022-08-08T11:20:31.563Z,821.72
2022-08-08T11:21:35.326Z,821.72
2022-08-08T11:22:31.886Z,821.72
2022-08-08T11:23:32.861Z,821.70
2022-08-08T11:24:31.615Z,821.74
2022-08-08T11:25:51.815Z,821.71
2022-08-08T11:26:31.654Z,821.73
2022-08-08T11:27:37.111Z,821.70
2022-08-08T11:28:31.903Z,821.70
2022-08-08T11:29:51.399Z,821.72
2022-08-08T11:30:31.978Z,821.69
2022-08-08T11:31:46.840Z,821.66
2022-08-08T11:32:31.951Z,821.71
2022-08-08T11:33:51.422Z,821.66
2022-08-08T11:34:46.829Z,821.68
2022-08-08T11:35:37.686Z,821.68
2022-08-08T11:36:31.870Z,821.68
2022-08-08T11:38:34.238Z,821.70
2022-08-08T11:38:39.646Z,821.69
2022-08-08T11:39:37.165Z,821.69
2022-08-08T11:40:31.951Z,821.70
2022-08-08T11:41:33.909Z,821.71
2022-08-08T11:42:32.331Z,821.74
2022-08-08T11:43:39.057Z,821.72
2022-08-08T11:44:32.028Z,821.75
2022-08-08T11:45:43.648Z,821.67
2022-08-08T11:46:32.784Z,821.71
2022-08-08T11:47:39.531Z,821.72
2022-08-08T11:48:32.122Z,821.75
2022-08-08T11:49:32.185Z,821.69
2022-08-08T11:50:32.224Z,821.76
2022-08-08T11:51:39.804Z,821.72
2022-08-08T11:52:32.267Z,821.61
2022-08-08T11:53:32.279Z,821.70
2022-08-08T11:54:33.469Z,821.71
2022-08-08T11:55:32.267Z,821.66
2022-08-08T11:56:32.288Z,821.64
2022-08-08T11:57:35.077Z,821.66
2022-08-08T11:58:32.343Z,821.67
2022-08-08T12:00:00.245Z,821.59
2022-08-08T12:00:32.373Z,821.67
2022-08-08T12:01:32.398Z,821.64
2022-08-08T12:02:33.654Z,821.65
2022-08-08T12:03:32.521Z,821.58
2022-08-08T12:04:32.463Z,821.65
2022-08-08T12:05:33.763Z,821.61
2022-08-08T12:06:32.618Z,821.67
2022-08-08T12:07:35.584Z,821.64
2022-08-08T12:08:32.545Z,821.61
2022-08-08T12:09:56.797Z,821.64
2022-08-08T12:10:32.604Z,821.70
2022-08-08T12:11:32.627Z,821.62
2022-08-08T12:12:32.741Z,821.72
2022-08-08T12:13:37.703Z,821.66
2022-08-08T12:14:32.697Z,821.69
2022-08-08T12:15:41.891Z,821.57
2022-08-08T12:16:43.441Z,821.68
2022-08-08T12:17:32.770Z,821.60
2022-08-08T12:18:32.771Z,821.66
2022-08-08T12:19:50.903Z,821.58
2022-08-08T12:20:32.815Z,821.69
2022-08-08T12:22:00.472Z,821.65
2022-08-08T12:22:44.936Z,821.63
2022-08-08T12:23:43.636Z,821.61
2022-08-08T12:24:32.902Z,821.63
2022-08-08T12:25:32.927Z,821.63
2022-08-08T12:26:36.138Z,821.64
2022-08-08T12:27:35.633Z,821.63